sensor_id;sensor_type;location;lat;lon;timestamp;pressure;altitude;pressure_sealevel;temperature;humidity
64889;BME280;51386;53.082;8.816;2023-02-24T00:01:33;101238.91;;;10.95;49.47
64889;BME280;51386;53.082;8.816;2023-02-24T00:04:05;101239.06;;;10.94;48.99
64889;BME280;51386;53.082;8.816;2023-02-24T00:06:40;101229.53;;;10.93;49.06
64889;BME280;51386;53.082;8.816;2023-02-24T00:09:10;101228.72;;;10.92;48.84
64889;BME280;51386;53.082;8.816;2023-02-24T00:11:42;101228.22;;;10.88;48.74
64889;BME280;51386;53.082;8.816;2023-02-24T00:14:14;101236.13;;;10.88;48.83
64889;BME280;51386;53.082;8.816;2023-02-24T00:16:42;101224.59;;;10.89;48.73
64889;BME280;51386;53.082;8.816;2023-02-24T00:19:12;101220.97;;;10.91;48.40
64889;BME280;51386;53.082;8.816;2023-02-24T00:21:40;101219.31;;;10.89;48.14
64889;BME280;51386;53.082;8.816;2023-02-24T00:24:08;101222.97;;;10.88;48.06
64889;BME280;51386;53.082;8.816;2023-02-24T00:26:35;101203.84;;;10.86;48.11
64889;BME280;51386;53.082;8.816;2023-02-24T00:29:07;101207.47;;;10.85;48.06
64889;BME280;51386;53.082;8.816;2023-02-24T00:31:35;101210.44;;;10.82;48.20
64889;BME280;51386;53.082;8.816;2023-02-24T00:34:05;101209.78;;;10.80;48.13
64889;BME280;51386;53.082;8.816;2023-02-24T00:36:33;101209.78;;;10.80;48.14
64889;BME280;51386;53.082;8.816;2023-02-24T00:39:04;101194.00;;;10.80;48.39
64889;BME280;51386;53.082;8.816;2023-02-24T00:41:40;101194.00;;;10.80;48.02
64889;BME280;51386;53.082;8.816;2023-02-24T00:44:12;101185.91;;;10.82;48.45
64889;BME280;51386;53.082;8.816;2023-02-24T00:46:42;101187.41;;;10.84;48.00
64889;BME280;51386;53.082;8.816;2023-02-24T00:49:15;101185.41;;;10.86;47.79
64889;BME280;51386;53.082;8.816;2023-02-24T00:51:46;101179.00;;;10.89;47.77
64889;BME280;51386;53.082;8.816;2023-02-24T00:54:15;101173.72;;;10.89;47.70
64889;BME280;51386;53.082;8.816;2023-02-24T00:56:46;101165.03;;;10.88;47.60
64889;BME280;51386;53.082;8.816;2023-02-24T00:59:16;101161.38;;;10.89;47.89
64889;BME280;51386;53.082;8.816;2023-02-24T01:01:44;101148.41;;;10.88;47.41
64889;BME280;51386;53.082;8.816;2023-02-24T01:04:12;101148.72;;;10.85;47.57
64889;BME280;51386;53.082;8.816;2023-02-24T01:06:43;101145.13;;;10.86;47.42
64889;BME280;51386;53.082;8.816;2023-02-24T01:09:14;101139.03;;;10.85;47.38
64889;BME280;51386;53.082;8.816;2023-02-24T01:11:44;101136.22;;;10.87;47.92
64889;BME280;51386;53.082;8.816;2023-02-24T01:14:34;101135.38;;;10.86;47.55
64889;BME280;51386;53.082;8.816;2023-02-24T01:17:02;101130.81;;;10.88;47.98
64889;BME280;51386;53.082;8.816;2023-02-24T01:19:31;101107.09;;;10.88;47.66
64889;BME280;51386;53.082;8.816;2023-02-24T01:22:02;101114.00;;;10.89;47.89
64889;BME280;51386;53.082;8.816;2023-02-24T01:24:35;101110.38;;;10.91;47.37
64889;BME280;51386;53.082;8.816;2023-02-24T01:27:03;101109.56;;;10.90;47.81
64889;BME280;51386;53.082;8.816;2023-02-24T01:29:32;101104.47;;;10.88;47.20
64889;BME280;51386;53.082;8.816;2023-02-24T01:32:06;101095.88;;;10.86;47.44
64889;BME280;51386;53.082;8.816;2023-02-24T01:34:33;101091.63;;;10.85;47.40
64889;BME280;51386;53.082;8.816;2023-02-24T01:37:00;101084.38;;;10.87;46.93
64889;BME280;51386;53.082;8.816;2023-02-24T01:39:27;101079.13;;;10.87;47.42
64889;BME280;51386;53.082;8.816;2023-02-24T01:41:55;101080.78;;;10.88;47.01
64889;BME280;51386;53.082;8.816;2023-02-24T01:45:23;101072.88;;;10.80;47.13
64889;BME280;51386;53.082;8.816;2023-02-24T01:47:52;101072.03;;;10.80;46.74
64889;BME280;51386;53.082;8.816;2023-02-24T01:50:25;101068.25;;;10.74;46.58
64889;BME280;51386;53.082;8.816;2023-02-24T01:52:59;101061.69;;;10.70;46.74
64889;BME280;51386;53.082;8.816;2023-02-24T01:55:31;101059.56;;;10.66;46.75
64889;BME280;51386;53.082;8.816;2023-02-24T01:58:03;101054.47;;;10.64;46.33
64889;BME280;51386;53.082;8.816;2023-02-24T02:00:34;101045.09;;;10.62;46.36
64889;BME280;51386;53.082;8.816;2023-02-24T02:03:14;101040.00;;;10.60;46.62
64889;BME280;51386;53.082;8.816;2023-02-24T02:05:44;101034.91;;;10.59;45.99
64889;BME280;51386;53.082;8.816;2023-02-24T02:08:18;101027.34;;;10.56;46.55
64889;BME280;51386;53.082;8.816;2023-02-24T02:10:46;101024.88;;;10.54;46.14
64889;BME280;51386;53.082;8.816;2023-02-24T02:13:17;101025.22;;;10.51;46.41
64889;BME280;51386;53.082;8.816;2023-02-24T02:16:03;101019.28;;;10.49;46.78
64889;BME280;51386;53.082;8.816;2023-02-24T02:18:48;101022.75;;;10.50;46.65
64889;BME280;51386;53.082;8.816;2023-02-24T02:21:48;101012.41;;;10.48;46.80
64889;BME280;51386;53.082;8.816;2023-02-24T02:24:48;101014.53;;;10.45;46.63
64889;BME280;51386;53.082;8.816;2023-02-24T02:27:33;101007.97;;;10.41;46.44
64889;BME280;51386;53.082;8.816;2023-02-24T02:30:29;101002.22;;;10.37;46.63
64889;BME280;51386;53.082;8.816;2023-02-24T02:33:39;101002.72;;;10.33;46.54
64889;BME280;51386;53.082;8.816;2023-02-24T02:36:16;100999.25;;;10.32;47.30
64889;BME280;51386;53.082;8.816;2023-02-24T02:38:57;100991.72;;;10.29;46.56
64889;BME280;51386;53.082;8.816;2023-02-24T02:41:36;100993.66;;;10.27;47.25
64889;BME280;51386;53.082;8.816;2023-02-24T02:44:13;100984.16;;;10.26;46.95
64889;BME280;51386;53.082;8.816;2023-02-24T02:46:51;100978.88;;;10.26;46.92
64889;BME280;51386;53.082;8.816;2023-02-24T02:49:29;100987.75;;;10.25;47.07
64889;BME280;51386;53.082;8.816;2023-02-24T02:52:05;100982.84;;;10.22;47.26
64889;BME280;51386;53.082;8.816;2023-02-24T02:54:46;100973.13;;;10.23;47.50
64889;BME280;51386;53.082;8.816;2023-02-24T02:57:20;100974.94;;;10.22;46.97
64889;BME280;51386;53.082;8.816;2023-02-24T02:59:56;100975.94;;;10.21;47.28
64889;BME280;51386;53.082;8.816;2023-02-24T03:02:28;100971.31;;;10.23;47.50
64889;BME280;51386;53.082;8.816;2023-02-24T03:05:08;100963.75;;;10.20;47.14
64889;BME280;51386;53.082;8.816;2023-02-24T03:07:41;100960.16;;;10.21;47.82
64889;BME280;51386;53.082;8.816;2023-02-24T03:10:16;100955.34;;;10.25;47.42
64889;BME280;51386;53.082;8.816;2023-02-24T03:12:53;100961.13;;;10.28;47.35
64889;BME280;51386;53.082;8.816;2023-02-24T03:15:24;100960.78;;;10.31;46.77
64889;BME280;51386;53.082;8.816;2023-02-24T03:17:57;100953.06;;;10.30;47.27
64889;BME280;51386;53.082;8.816;2023-02-24T03:20:37;100936.47;;;10.29;47.26
64889;BME280;51386;53.082;8.816;2023-02-24T03:23:12;100940.41;;;10.33;47.30
64889;BME280;51386;53.082;8.816;2023-02-24T03:25:53;100920.31;;;10.32;46.97
64889;BME280;51386;53.082;8.816;2023-02-24T03:28:31;100923.59;;;10.34;47.38
64889;BME280;51386;53.082;8.816;2023-02-24T03:31:06;100925.25;;;10.35;46.86
64889;BME280;51386;53.082;8.816;2023-02-24T03:33:41;100932.50;;;10.33;46.92
64889;BME280;51386;53.082;8.816;2023-02-24T03:36:12;100917.88;;;10.31;46.73
64889;BME280;51386;53.082;8.816;2023-02-24T03:38:42;100919.03;;;10.28;46.51
64889;BME280;51386;53.082;8.816;2023-02-24T03:41:09;100908.50;;;10.28;47.25
64889;BME280;51386;53.082;8.816;2023-02-24T03:43:40;100906.06;;;10.27;47.15
64889;BME280;51386;53.082;8.816;2023-02-24T03:46:12;100897.34;;;10.26;46.58
64889;BME280;51386;53.082;8.816;2023-02-24T03:48:48;100903.25;;;10.20;47.06
64889;BME280;51386;53.082;8.816;2023-02-24T03:51:21;100901.78;;;10.17;47.06
64889;BME280;51386;53.082;8.816;2023-02-24T03:54:02;100906.56;;;10.14;46.97
64889;BME280;51386;53.082;8.816;2023-02-24T03:56:54;100899.31;;;10.08;47.17
64889;BME280;51386;53.082;8.816;2023-02-24T03:59:41;100893.75;;;10.03;47.15
64889;BME280;51386;53.082;8.816;2023-02-24T04:02:19;100886.84;;;10.02;47.55
64889;BME280;51386;53.082;8.816;2023-02-24T04:04:53;100887.81;;;10.01;47.88
64889;BME280;51386;53.082;8.816;2023-02-24T04:07:36;100881.91;;;9.99;47.72
64889;BME280;51386;53.082;8.816;2023-02-24T04:10:10;100879.91;;;10.01;47.38
64889;BME280;51386;53.082;8.816;2023-02-24T04:12:46;100864.16;;;10.01;47.13
64889;BME280;51386;53.082;8.816;2023-02-24T04:15:22;100871.06;;;10.02;47.16
64889;BME280;51386;53.082;8.816;2023-02-24T04:17:55;100859.91;;;10.00;47.60
64889;BME280;51386;53.082;8.816;2023-02-24T04:20:28;100846.75;;;10.00;47.54
64889;BME280;51386;53.082;8.816;2023-02-24T04:23:05;100840.19;;;9.96;47.51
64889;BME280;51386;53.082;8.816;2023-02-24T04:25:39;100838.53;;;9.95;47.36
64889;BME280;51386;53.082;8.816;2023-02-24T04:28:10;100833.28;;;9.95;47.79
64889;BME280;51386;53.082;8.816;2023-02-24T04:30:42;100824.41;;;9.96;47.66
64889;BME280;51386;53.082;8.816;2023-02-24T04:33:11;100825.22;;;9.96;47.75
64889;BME280;51386;53.082;8.816;2023-02-24T04:35:38;100811.09;;;9.97;47.79
64889;BME280;51386;53.082;8.816;2023-02-24T04:38:07;100804.69;;;10.00;47.91
64889;BME280;51386;53.082;8.816;2023-02-24T04:40:34;100804.69;;;10.00;48.19
64889;BME280;51386;53.082;8.816;2023-02-24T04:43:02;100783.66;;;10.00;47.93
64889;BME280;51386;53.082;8.816;2023-02-24T04:45:30;100786.94;;;9.94;48.50
64889;BME280;51386;53.082;8.816;2023-02-24T04:48:01;100791.53;;;9.92;48.28
64889;BME280;51386;53.082;8.816;2023-02-24T04:50:32;100775.78;;;9.92;48.46
64889;BME280;51386;53.082;8.816;2023-02-24T04:53:02;100770.19;;;9.95;48.79
64889;BME280;51386;53.082;8.816;2023-02-24T04:55:36;100762.94;;;9.97;48.04
64889;BME280;51386;53.082;8.816;2023-02-24T04:58:09;100759.34;;;9.98;48.90
64889;BME280;51386;53.082;8.816;2023-02-24T05:00:37;100752.09;;;10.00;48.75
64889;BME280;51386;53.082;8.816;2023-02-24T05:03:10;100751.91;;;10.01;48.51
64889;BME280;51386;53.082;8.816;2023-02-24T05:05:37;100744.84;;;10.02;48.94
64889;BME280;51386;53.082;8.816;2023-02-24T05:08:07;100739.59;;;10.02;48.59
64889;BME280;51386;53.082;8.816;2023-02-24T05:10:39;100731.06;;;10.00;48.49
64889;BME280;51386;53.082;8.816;2023-02-24T05:13:07;100731.06;;;10.00;48.65
64889;BME280;51386;53.082;8.816;2023-02-24T05:15:40;100716.78;;;9.94;48.38
64889;BME280;51386;53.082;8.816;2023-02-24T05:18:10;100716.31;;;9.91;48.63
64889;BME280;51386;53.082;8.816;2023-02-24T05:20:42;100704.97;;;9.90;49.22
64889;BME280;51386;53.082;8.816;2023-02-24T05:23:30;100703.00;;;9.92;49.47
64889;BME280;51386;53.082;8.816;2023-02-24T05:26:00;100692.28;;;9.94;49.13
64889;BME280;51386;53.082;8.816;2023-02-24T05:28:28;100691.13;;;9.96;48.93
64889;BME280;51386;53.082;8.816;2023-02-24T05:31:05;100686.06;;;9.95;49.21
64889;BME280;51386;53.082;8.816;2023-02-24T05:33:34;100670.28;;;9.95;48.96
64889;BME280;51386;53.082;8.816;2023-02-24T05:36:05;100665.03;;;9.95;49.58
64889;BME280;51386;53.082;8.816;2023-02-24T05:38:34;100661.91;;;9.91;49.48
64889;BME280;51386;53.082;8.816;2023-02-24T05:41:07;100662.72;;;9.92;49.42
64889;BME280;51386;53.082;8.816;2023-02-24T05:43:40;100658.47;;;9.91;49.86
64889;BME280;51386;53.082;8.816;2023-02-24T05:46:07;100653.22;;;9.91;49.79
64889;BME280;51386;53.082;8.816;2023-02-24T05:48:34;100652.22;;;9.92;49.65
64889;BME280;51386;53.082;8.816;2023-02-24T05:51:02;100636.63;;;9.90;49.46
64889;BME280;51386;53.082;8.816;2023-02-24T05:53:31;100634.81;;;9.91;50.00
64889;BME280;51386;53.082;8.816;2023-02-24T05:55:59;100620.66;;;9.92;50.14
64889;BME280;51386;53.082;8.816;2023-02-24T05:58:28;100620.53;;;9.93;49.90
64889;BME280;51386;53.082;8.816;2023-02-24T06:00:56;100612.78;;;9.92;49.77
64889;BME280;51386;53.082;8.816;2023-02-24T06:03:24;100606.69;;;9.91;49.85
64889;BME280;51386;53.082;8.816;2023-02-24T06:05:57;100603.91;;;9.93;50.37
64889;BME280;51386;53.082;8.816;2023-02-24T06:08:25;100604.38;;;9.96;50.10
64889;BME280;51386;53.082;8.816;2023-02-24T06:10:51;100607.84;;;9.97;50.33
64889;BME280;51386;53.082;8.816;2023-02-24T06:13:19;100604.53;;;10.03;50.28
64889;BME280;51386;53.082;8.816;2023-02-24T06:15:47;100604.53;;;10.03;49.76
64889;BME280;51386;53.082;8.816;2023-02-24T06:18:20;100596.63;;;10.03;49.94
64889;BME280;51386;53.082;8.816;2023-02-24T06:20:47;100597.63;;;10.02;49.70
64889;BME280;51386;53.082;8.816;2023-02-24T06:23:17;100595.81;;;10.02;50.44
64889;BME280;51386;53.082;8.816;2023-02-24T06:25:45;100592.34;;;10.02;49.86
64889;BME280;51386;53.082;8.816;2023-02-24T06:28:12;100596.78;;;10.01;50.04
64889;BME280;51386;53.082;8.816;2023-02-24T06:30:38;100591.88;;;9.98;50.09
64889;BME280;51386;53.082;8.816;2023-02-24T06:33:07;100591.09;;;9.98;50.36
64889;BME280;51386;53.082;8.816;2023-02-24T06:35:34;100588.97;;;9.93;50.96
64889;BME280;51386;53.082;8.816;2023-02-24T06:38:04;100577.97;;;9.90;50.97
64889;BME280;51386;53.082;8.816;2023-02-24T06:40:31;100578.31;;;9.87;51.41
64889;BME280;51386;53.082;8.816;2023-02-24T06:42:58;100570.50;;;9.79;51.63
64889;BME280;51386;53.082;8.816;2023-02-24T06:45:25;100572.81;;;9.74;51.94
64889;BME280;51386;53.082;8.816;2023-02-24T06:47:52;100571.16;;;9.73;52.62
64889;BME280;51386;53.082;8.816;2023-02-24T06:50:21;100569.06;;;9.68;52.42
64889;BME280;51386;53.082;8.816;2023-02-24T06:52:53;100562.75;;;9.54;52.58
64889;BME280;51386;53.082;8.816;2023-02-24T06:55:20;100555.38;;;9.50;53.39
64889;BME280;51386;53.082;8.816;2023-02-24T06:57:56;100541.31;;;9.43;53.44
64889;BME280;51386;53.082;8.816;2023-02-24T07:00:26;100546.84;;;9.48;53.45
64889;BME280;51386;53.082;8.816;2023-02-24T07:03:08;100541.41;;;9.49;53.58
64889;BME280;51386;53.082;8.816;2023-02-24T07:05:50;100535.03;;;9.44;53.45
64889;BME280;51386;53.082;8.816;2023-02-24T07:08:22;100528.31;;;9.41;53.42
64889;BME280;51386;53.082;8.816;2023-02-24T07:10:54;100513.56;;;9.40;53.96
64889;BME280;51386;53.082;8.816;2023-02-24T07:13:22;100511.91;;;9.39;53.92
64889;BME280;51386;53.082;8.816;2023-02-24T07:15:50;100508.31;;;9.40;54.02
64889;BME280;51386;53.082;8.816;2023-02-24T07:18:18;100498.44;;;9.42;54.11
64889;BME280;51386;53.082;8.816;2023-02-24T07:20:45;100502.88;;;9.42;54.08
64889;BME280;51386;53.082;8.816;2023-02-24T07:23:15;100493.53;;;9.39;54.26
64889;BME280;51386;53.082;8.816;2023-02-24T07:25:43;100498.44;;;9.42;54.42
64889;BME280;51386;53.082;8.816;2023-02-24T07:28:12;100486.97;;;9.43;54.37
64889;BME280;51386;53.082;8.816;2023-02-24T07:30:40;100487.75;;;9.44;54.09
64889;BME280;51386;53.082;8.816;2023-02-24T07:33:08;100483.31;;;9.44;54.61
64889;BME280;51386;53.082;8.816;2023-02-24T07:35:35;100481.00;;;9.49;54.33
64889;BME280;51386;53.082;8.816;2023-02-24T07:38:02;100478.19;;;9.51;54.28
64889;BME280;51386;53.082;8.816;2023-02-24T07:40:33;100458.00;;;9.51;54.60
64889;BME280;51386;53.082;8.816;2023-02-24T07:43:02;100461.25;;;9.53;54.70
64889;BME280;51386;53.082;8.816;2023-02-24T07:45:32;100464.06;;;9.52;54.79
64889;BME280;51386;53.082;8.816;2023-02-24T07:47:59;100460.09;;;9.56;54.57
64889;BME280;51386;53.082;8.816;2023-02-24T07:50:27;100459.94;;;9.58;54.56
64889;BME280;51386;53.082;8.816;2023-02-24T07:52:58;100450.75;;;9.53;54.50
64889;BME280;51386;53.082;8.816;2023-02-24T07:55:25;100449.47;;;9.49;55.05
64889;BME280;51386;53.082;8.816;2023-02-24T07:57:58;100452.53;;;9.38;55.47
64889;BME280;51386;53.082;8.816;2023-02-24T08:00:27;100450.69;;;9.39;55.39
64889;BME280;51386;53.082;8.816;2023-02-24T08:02:56;100443.19;;;9.36;55.20
64889;BME280;51386;53.082;8.816;2023-02-24T08:05:26;100445.97;;;9.34;55.57
64889;BME280;51386;53.082;8.816;2023-02-24T08:07:53;100435.63;;;9.33;55.35
64889;BME280;51386;53.082;8.816;2023-02-24T08:10:22;100429.56;;;9.32;55.57
64889;BME280;51386;53.082;8.816;2023-02-24T08:12:55;100420.06;;;9.31;56.03
64889;BME280;51386;53.082;8.816;2023-02-24T08:15:25;100425.34;;;9.23;56.16
64889;BME280;51386;53.082;8.816;2023-02-24T08:18:00;100415.38;;;9.19;56.61
64889;BME280;51386;53.082;8.816;2023-02-24T08:20:29;100409.16;;;9.20;56.14
64889;BME280;51386;53.082;8.816;2023-02-24T08:23:02;100405.00;;;9.25;56.35
64889;BME280;51386;53.082;8.816;2023-02-24T08:25:32;100409.91;;;9.28;56.48
64889;BME280;51386;53.082;8.816;2023-02-24T08:28:04;100404.00;;;9.26;56.24
64889;BME280;51386;53.082;8.816;2023-02-24T08:30:41;100398.75;;;9.26;56.26
64889;BME280;51386;53.082;8.816;2023-02-24T08:33:17;100391.41;;;9.22;56.52
64889;BME280;51386;53.082;8.816;2023-02-24T08:35:50;100377.81;;;9.18;56.78
64889;BME280;51386;53.082;8.816;2023-02-24T08:38:20;100384.22;;;9.16;56.66
64889;BME280;51386;53.082;8.816;2023-02-24T08:40:52;100375.25;;;9.10;56.84
64889;BME280;51386;53.082;8.816;2023-02-24T08:43:25;100370.16;;;9.09;56.88
64889;BME280;51386;53.082;8.816;2023-02-24T08:46:01;100368.69;;;9.06;57.19
64889;BME280;51386;53.082;8.816;2023-02-24T08:48:33;100368.88;;;9.05;57.36
64889;BME280;51386;53.082;8.816;2023-02-24T08:51:09;100353.66;;;9.00;57.16
64889;BME280;51386;53.082;8.816;2023-02-24T08:53:37;100353.16;;;8.97;57.62
64889;BME280;51386;53.082;8.816;2023-02-24T08:56:09;100357.63;;;8.96;57.35
64889;BME280;51386;53.082;8.816;2023-02-24T08:58:40;100348.75;;;8.97;57.32
64889;BME280;51386;53.082;8.816;2023-02-24T09:01:18;100344.94;;;9.00;57.68
64889;BME280;51386;53.082;8.816;2023-02-24T09:03:48;100335.56;;;9.05;57.72
64889;BME280;51386;53.082;8.816;2023-02-24T09:06:19;100336.84;;;9.09;57.64
64889;BME280;51386;53.082;8.816;2023-02-24T09:08:54;100328.00;;;9.10;57.58
64889;BME280;51386;53.082;8.816;2023-02-24T09:11:41;100318.13;;;9.12;57.87
64889;BME280;51386;53.082;8.816;2023-02-24T09:14:13;100326.00;;;9.12;57.69
64889;BME280;51386;53.082;8.816;2023-02-24T09:16:55;100308.94;;;9.08;57.80
64889;BME280;51386;53.082;8.816;2023-02-24T09:19:35;100309.47;;;9.04;57.92
64889;BME280;51386;53.082;8.816;2023-02-24T09:22:20;100292.56;;;9.06;57.96
64889;BME280;51386;53.082;8.816;2023-02-24T09:25:10;100297.81;;;9.06;58.08
64889;BME280;51386;53.082;8.816;2023-02-24T09:28:09;100284.34;;;9.09;57.96
64889;BME280;51386;53.082;8.816;2023-02-24T09:30:40;100287.06;;;9.16;58.19
64889;BME280;51386;53.082;8.816;2023-02-24T09:33:24;100290.19;;;9.19;58.28
64889;BME280;51386;53.082;8.816;2023-02-24T09:35:56;100282.59;;;9.24;57.75
64889;BME280;51386;53.082;8.816;2023-02-24T09:38:37;100267.28;;;9.28;57.89
64889;BME280;51386;53.082;8.816;2023-02-24T09:41:29;100270.19;;;9.33;57.45
64889;BME280;51386;53.082;8.816;2023-02-24T09:44:03;100265.41;;;9.36;57.35
64889;BME280;51386;53.082;8.816;2023-02-24T09:46:44;100258.81;;;9.40;57.05
64889;BME280;51386;53.082;8.816;2023-02-24T09:49:38;100263.31;;;9.46;57.03
64889;BME280;51386;53.082;8.816;2023-02-24T09:52:17;100261.53;;;9.47;56.90
64889;BME280;51386;53.082;8.816;2023-02-24T09:54:49;100250.66;;;9.50;56.96
64889;BME280;51386;53.082;8.816;2023-02-24T09:57:47;100248.97;;;9.57;56.98
64889;BME280;51386;53.082;8.816;2023-02-24T10:00:39;100231.75;;;9.54;56.80
64889;BME280;51386;53.082;8.816;2023-02-24T10:03:20;100233.81;;;9.59;56.66
64889;BME280;51386;53.082;8.816;2023-02-24T10:06:19;100222.41;;;9.52;57.10
64889;BME280;51386;53.082;8.816;2023-02-24T10:08:53;100220.22;;;9.55;56.94
64889;BME280;51386;53.082;8.816;2023-02-24T10:11:25;100208.38;;;9.60;56.86
64889;BME280;51386;53.082;8.816;2023-02-24T10:14:08;100211.63;;;9.62;56.80
64889;BME280;51386;53.082;8.816;2023-02-24T10:16:48;100213.63;;;9.60;57.43
64889;BME280;51386;53.082;8.816;2023-02-24T10:19:38;100213.09;;;9.64;57.34
64889;BME280;51386;53.082;8.816;2023-02-24T10:22:17;100200.75;;;9.65;56.78
64889;BME280;51386;53.082;8.816;2023-02-24T10:25:01;100193.88;;;9.64;57.26
64889;BME280;51386;53.082;8.816;2023-02-24T10:27:47;100203.41;;;9.65;57.18
64889;BME280;51386;53.082;8.816;2023-02-24T10:30:35;100191.88;;;9.66;56.82
64889;BME280;51386;53.082;8.816;2023-02-24T10:33:20;100189.72;;;9.69;56.66
64889;BME280;51386;53.082;8.816;2023-02-24T10:36:08;100187.50;;;9.73;56.69
64889;BME280;51386;53.082;8.816;2023-02-24T10:38:42;100189.88;;;9.68;57.24
64889;BME280;51386;53.082;8.816;2023-02-24T10:41:17;100183.00;;;9.67;57.02
64889;BME280;51386;53.082;8.816;2023-02-24T10:43:53;100180.38;;;9.67;56.81
64889;BME280;51386;53.082;8.816;2023-02-24T10:46:27;100177.81;;;9.73;57.23
64889;BME280;51386;53.082;8.816;2023-02-24T10:49:10;100174.03;;;9.76;57.27
64889;BME280;51386;53.082;8.816;2023-02-24T10:51:50;100177.00;;;9.73;57.33
64889;BME280;51386;53.082;8.816;2023-02-24T10:54:23;100167.94;;;9.75;57.17
64889;BME280;51386;53.082;8.816;2023-02-24T10:57:12;100167.84;;;9.83;57.03
64889;BME280;51386;53.082;8.816;2023-02-24T11:00:15;100154.34;;;9.86;57.25
64889;BME280;51386;53.082;8.816;2023-02-24T11:03:10;100154.50;;;9.85;56.71
64889;BME280;51386;53.082;8.816;2023-02-24T11:05:51;100146.28;;;9.88;56.82
64889;BME280;51386;53.082;8.816;2023-02-24T11:08:32;100142.88;;;9.94;57.08
64889;BME280;51386;53.082;8.816;2023-02-24T11:11:15;100137.22;;;9.90;57.21
64889;BME280;51386;53.082;8.816;2023-02-24T11:13:54;100140.03;;;9.89;57.01
64889;BME280;51386;53.082;8.816;2023-02-24T11:16:44;100136.94;;;9.85;57.61
64889;BME280;51386;53.082;8.816;2023-02-24T11:19:40;100126.97;;;9.81;57.68
64889;BME280;51386;53.082;8.816;2023-02-24T11:22:14;100119.91;;;9.81;57.58
64889;BME280;51386;53.082;8.816;2023-02-24T11:24:43;100123.59;;;9.87;57.74
64889;BME280;51386;53.082;8.816;2023-02-24T11:27:15;100132.78;;;9.91;57.74
64889;BME280;51386;53.082;8.816;2023-02-24T11:30:02;100130.22;;;9.97;57.47
64889;BME280;51386;53.082;8.816;2023-02-24T11:32:52;100125.22;;;10.02;57.76
64889;BME280;51386;53.082;8.816;2023-02-24T11:35:26;100119.69;;;10.12;57.58
64889;BME280;51386;53.082;8.816;2023-02-24T11:38:05;100102.41;;;10.24;57.65
64889;BME280;51386;53.082;8.816;2023-02-24T11:40:40;100113.81;;;10.31;57.41
64889;BME280;51386;53.082;8.816;2023-02-24T11:43:15;100104.09;;;10.32;57.45
64889;BME280;51386;53.082;8.816;2023-02-24T11:45:48;100096.00;;;10.33;56.86
64889;BME280;51386;53.082;8.816;2023-02-24T11:48:21;100091.38;;;10.35;57.61
64889;BME280;51386;53.082;8.816;2023-02-24T11:50:58;100085.13;;;10.36;57.60
64889;BME280;51386;53.082;8.816;2023-02-24T11:53:31;100073.00;;;10.42;57.19
64889;BME280;51386;53.082;8.816;2023-02-24T11:56:05;100068.25;;;10.52;57.61
64889;BME280;51386;53.082;8.816;2023-02-24T11:58:41;100064.03;;;10.57;57.13
64889;BME280;51386;53.082;8.816;2023-02-24T12:01:19;100055.34;;;10.57;57.07
64889;BME280;51386;53.082;8.816;2023-02-24T12:03:56;100061.22;;;10.59;57.27
64889;BME280;51386;53.082;8.816;2023-02-24T12:06:35;100046.63;;;10.56;57.22
64889;BME280;51386;53.082;8.816;2023-02-24T12:09:11;100030.22;;;10.54;57.65
64889;BME280;51386;53.082;8.816;2023-02-24T12:11:52;100024.34;;;10.52;57.58
64889;BME280;51386;53.082;8.816;2023-02-24T12:14:32;100020.31;;;10.56;57.63
64889;BME280;51386;53.082;8.816;2023-02-24T12:17:15;100011.25;;;10.65;57.16
64889;BME280;51386;53.082;8.816;2023-02-24T12:19:56;100014.56;;;10.74;57.28
64889;BME280;51386;53.082;8.816;2023-02-24T12:22:32;100018.22;;;10.79;57.85
64889;BME280;51386;53.082;8.816;2023-02-24T12:25:01;100010.97;;;10.81;57.17
64889;BME280;51386;53.082;8.816;2023-02-24T12:27:47;99998.81;;;10.80;57.09
64889;BME280;51386;53.082;8.816;2023-02-24T12:30:43;99996.78;;;10.82;57.32
64889;BME280;51386;53.082;8.816;2023-02-24T12:33:30;99994.41;;;10.94;57.73
64889;BME280;51386;53.082;8.816;2023-02-24T12:36:11;99978.47;;;11.09;57.50
64889;BME280;51386;53.082;8.816;2023-02-24T12:38:53;99973.47;;;11.27;57.41
64889;BME280;51386;53.082;8.816;2023-02-24T12:41:54;99975.78;;;11.56;56.54
64889;BME280;51386;53.082;8.816;2023-02-24T12:44:36;99972.38;;;11.62;56.84
64889;BME280;51386;53.082;8.816;2023-02-24T12:47:11;99970.59;;;11.69;56.52
64889;BME280;51386;53.082;8.816;2023-02-24T12:52:55;99954.56;;;11.77;56.02
64889;BME280;51386;53.082;8.816;2023-02-24T12:55:35;99958.84;;;11.78;56.28
64889;BME280;51386;53.082;8.816;2023-02-24T12:58:12;99957.41;;;11.82;56.13
64889;BME280;51386;53.082;8.816;2023-02-24T13:00:56;99950.53;;;11.81;56.10
64889;BME280;51386;53.082;8.816;2023-02-24T13:04:06;99947.25;;;11.73;56.71
64889;BME280;51386;53.082;8.816;2023-02-24T13:06:52;99937.94;;;11.70;56.92
64889;BME280;51386;53.082;8.816;2023-02-24T13:09:35;99939.56;;;11.71;56.86
64889;BME280;51386;53.082;8.816;2023-02-24T13:12:16;99934.28;;;11.71;57.53
64889;BME280;51386;53.082;8.816;2023-02-24T13:14:47;99922.53;;;11.74;57.52
64889;BME280;51386;53.082;8.816;2023-02-24T13:17:20;99916.84;;;11.77;57.23
64889;BME280;51386;53.082;8.816;2023-02-24T13:19:52;99908.13;;;11.83;57.13
64889;BME280;51386;53.082;8.816;2023-02-24T13:22:31;99908.28;;;12.27;57.96
64889;BME280;51386;53.082;8.816;2023-02-24T13:25:11;99899.91;;;13.01;57.29
64889;BME280;51386;53.082;8.816;2023-02-24T13:27:54;99898.44;;;13.49;56.49
64889;BME280;51386;53.082;8.816;2023-02-24T13:30:28;99891.75;;;13.96;56.18
64889;BME280;51386;53.082;8.816;2023-02-24T13:33:05;99884.44;;;14.59;55.03
64889;BME280;51386;53.082;8.816;2023-02-24T13:35:36;99875.97;;;15.16;53.48
64889;BME280;51386;53.082;8.816;2023-02-24T13:38:25;99881.50;;;15.26;52.23
64889;BME280;51386;53.082;8.816;2023-02-24T13:40:53;99888.97;;;15.18;51.49